Time;durP1;ratioP1;P1;durP2;ratioP2;P2;SDS_P1;SDS_P2;PMS_P1;PMS_P2;Temp;Humidity;BMP_temperature;BMP_pressure;BME280_temperature;BME280_humidity;BME280_pressure;Samples;Min_cycle;Max_cycle;Signal;HPM_P1;HPM_P2
2023/01/20 00:01:33;;;;;;;9.30;5.22;;;10.50;99.90;;;;;;5070308;28;20501;-74
2023/01/20 00:04:01;;;;;;;10.43;5.18;;;10.60;99.90;;;;;;5072136;28;20492;-74
2023/01/20 00:06:29;;;;;;;16.27;9.80;;;10.40;99.90;;;;;;5072491;28;20073;-74
2023/01/20 00:09:02;;;;;;;10.48;7.15;;;10.30;99.90;;;;;;5072008;28;20052;-74
2023/01/20 00:11:30;;;;;;;8.05;5.10;;;10.20;99.90;;;;;;5071709;28;20044;-74
2023/01/20 00:14:00;;;;;;;8.10;4.30;;;10.30;99.90;;;;;;5071803;28;20094;-74
2023/01/20 00:16:28;;;;;;;7.47;4.75;;;10.40;99.90;;;;;;5072382;28;20072;-74
2023/01/20 00:18:56;;;;;;;6.20;3.47;;;10.40;99.90;;;;;;5071920;28;20093;-74
2023/01/20 00:21:23;;;;;;;4.53;3.28;;;10.50;99.90;;;;;;5071726;28;20045;-74
2023/01/20 00:23:51;;;;;;;10.10;4.28;;;10.60;99.90;;;;;;5070943;28;20052;-74
2023/01/20 00:26:20;;;;;;;4.32;3.45;;;10.60;99.90;;;;;;5071363;28;20037;-74
2023/01/20 00:28:49;;;;;;;6.03;3.10;;;10.60;99.90;;;;;;5069946;28;20049;-74
2023/01/20 00:31:22;;;;;;;5.97;3.85;;;10.50;99.90;;;;;;5069998;28;20056;-74
2023/01/20 00:33:51;;;;;;;8.60;3.53;;;10.50;99.90;;;;;;5070053;28;20102;-74
2023/01/20 00:36:19;;;;;;;4.80;3.03;;;10.50;99.90;;;;;;5070174;28;20048;-74
2023/01/20 00:38:47;;;;;;;4.70;2.80;;;10.50;99.90;;;;;;5071041;28;20127;-74
2023/01/20 00:41:16;;;;;;;6.68;3.13;;;10.50;99.90;;;;;;5078741;28;20113;-74
2023/01/20 00:43:44;;;;;;;5.75;2.28;;;10.60;99.90;;;;;;5069960;28;20036;-74
2023/01/20 00:46:11;;;;;;;7.90;3.03;;;10.60;99.90;;;;;;5071444;28;20106;-75
2023/01/20 00:48:39;;;;;;;5.93;2.20;;;10.60;99.90;;;;;;5071293;28;20037;-74
2023/01/20 00:51:08;;;;;;;4.50;1.85;;;10.50;99.90;;;;;;5069972;28;20554;-75
2023/01/20 00:53:36;;;;;;;4.05;2.25;;;10.60;99.90;;;;;;5068493;28;20041;-75
2023/01/20 00:56:04;;;;;;;3.88;2.10;;;10.50;99.90;;;;;;5069750;28;20592;-74
2023/01/20 00:58:32;;;;;;;3.75;2.50;;;10.40;99.90;;;;;;5071302;28;20041;-75
2023/01/20 01:01:00;;;;;;;4.13;1.75;;;10.40;99.90;;;;;;5070887;28;20036;-74
2023/01/20 01:03:28;;;;;;;4.75;2.25;;;10.30;99.90;;;;;;5069714;28;20059;-75
2023/01/20 01:06:13;;;;;;;3.38;1.85;;;10.30;99.90;;;;;;5070973;28;20909;-75
2023/01/20 01:08:41;;;;;;;4.22;2.33;;;10.30;99.90;;;;;;5070962;28;20104;-75
2023/01/20 01:11:11;;;;;;;3.10;1.65;;;10.20;99.90;;;;;;5071128;28;20075;-75
2023/01/20 01:13:38;;;;;;;3.45;2.10;;;10.20;99.90;;;;;;5069190;28;20121;-75
2023/01/20 01:16:14;;;;;;;6.35;2.58;;;10.10;99.90;;;;;;5070863;28;20085;-75
2023/01/20 01:18:42;;;;;;;3.47;1.43;;;10.00;99.90;;;;;;5070972;28;20514;-75
2023/01/20 01:21:13;;;;;;;5.68;1.75;;;9.90;99.90;;;;;;5070179;28;20044;-75
2023/01/20 01:23:41;;;;;;;5.40;2.00;;;10.00;99.90;;;;;;5070435;28;20040;-75
2023/01/20 01:26:09;;;;;;;5.35;2.03;;;9.90;99.90;;;;;;5070525;28;20132;-75
2023/01/20 01:28:37;;;;;;;4.30;1.58;;;10.00;99.90;;;;;;5070507;28;20101;-75
2023/01/20 01:31:06;;;;;;;5.32;1.70;;;10.00;99.90;;;;;;5069097;28;20036;-75
2023/01/20 01:33:34;;;;;;;4.47;1.85;;;10.00;99.90;;;;;;5068854;28;20399;-75
2023/01/20 01:36:03;;;;;;;5.93;2.00;;;9.90;99.90;;;;;;5068943;28;20065;-75
2023/01/20 01:38:31;;;;;;;3.90;1.55;;;9.80;99.90;;;;;;5070273;28;20402;-75
2023/01/20 01:40:59;;;;;;;5.82;1.40;;;9.80;99.90;;;;;;5068830;28;20033;-75
2023/01/20 01:43:30;;;;;;;3.75;1.58;;;9.80;99.90;;;;;;5070408;28;20157;-75
2023/01/20 01:45:57;;;;;;;2.97;2.13;;;9.70;99.90;;;;;;5050073;28;20487;-75
2023/01/20 01:48:42;;;;;;;3.67;1.85;;;9.80;99.90;;;;;;5066688;28;20040;-75
2023/01/20 01:51:24;;;;;;;3.05;1.60;;;9.80;99.90;;;;;;5069855;28;20048;-75
2023/01/20 01:54:04;;;;;;;3.83;1.90;;;9.80;99.90;;;;;;5070024;28;20098;-75
2023/01/20 01:56:32;;;;;;;1.88;1.45;;;9.80;99.90;;;;;;5068825;28;20040;-75
2023/01/20 01:59:02;;;;;;;4.78;1.85;;;9.70;99.90;;;;;;5070055;28;20040;-74
2023/01/20 02:01:35;;;;;;;2.88;1.50;;;9.70;99.90;;;;;;5069971;28;20568;-75
2023/01/20 02:04:12;;;;;;;5.18;1.88;;;9.70;99.90;;;;;;5069541;28;20041;-75
2023/01/20 02:06:51;;;;;;;2.33;1.30;;;9.80;99.90;;;;;;5068493;28;20375;-74
2023/01/20 02:09:18;;;;;;;4.22;1.75;;;9.80;99.90;;;;;;5051828;28;20036;-75
2023/01/20 02:11:50;;;;;;;2.60;1.63;;;9.80;99.90;;;;;;5069555;28;20110;-74
2023/01/20 02:14:21;;;;;;;5.05;1.27;;;9.90;99.90;;;;;;5069559;28;20044;-75
2023/01/20 02:16:55;;;;;;;6.30;1.58;;;9.90;99.90;;;;;;5069720;28;20385;-75
2023/01/20 02:19:37;;;;;;;3.75;1.42;;;9.90;99.90;;;;;;5068380;28;20054;-75
2023/01/20 02:22:16;;;;;;;1.88;1.40;;;9.90;99.90;;;;;;5048341;28;20152;-75
2023/01/20 02:25:18;;;;;;;2.60;1.30;;;10.00;99.90;;;;;;5059944;28;20044;-75
2023/01/20 02:28:13;;;;;;;4.35;1.33;;;10.00;99.90;;;;;;5068929;28;20048;-74
2023/01/20 02:31:17;;;;;;;2.95;1.45;;;10.10;99.90;;;;;;5058974;28;20036;-75
2023/01/20 02:34:06;;;;;;;3.47;1.40;;;10.20;99.90;;;;;;5069220;28;20040;-74
2023/01/20 02:36:46;;;;;;;4.18;1.10;;;10.20;99.90;;;;;;5067936;28;20063;-75
2023/01/20 02:39:54;;;;;;;6.50;1.60;;;10.20;99.90;;;;;;5069337;28;20068;-75
2023/01/20 02:42:30;;;;;;;;;;;10.20;99.90;;;;;;5049743;28;20049;-75
2023/01/20 02:45:21;;;;;;;4.03;1.20;;;10.30;99.90;;;;;;5060481;28;19924;-75
2023/01/20 02:48:21;;;;;;;4.13;1.77;;;10.20;99.90;;;;;;5068032;28;20152;-75
2023/01/20 02:51:08;;;;;;;2.55;1.02;;;10.20;99.90;;;;;;5069213;28;20127;-75
2023/01/20 02:53:57;;;;;;;3.38;0.93;;;10.20;99.90;;;;;;5068966;28;20060;-75
2023/01/20 02:56:27;;;;;;;3.38;1.75;;;10.20;99.90;;;;;;5069078;28;20045;-75
2023/01/20 02:59:17;;;;;;;5.38;1.50;;;10.10;99.90;;;;;;5069199;28;20363;-74
2023/01/20 03:01:46;;;;;;;2.30;1.10;;;10.10;99.90;;;;;;5067240;28;20049;-75
2023/01/20 03:04:18;;;;;;;3.72;1.52;;;10.00;99.90;;;;;;5068918;28;20161;-75
2023/01/20 03:06:50;;;;;;;6.90;1.45;;;10.00;99.90;;;;;;5068217;28;20043;-75
2023/01/20 03:09:24;;;;;;;4.50;1.70;;;10.10;99.90;;;;;;5051647;28;20143;-75
2023/01/20 03:11:59;;;;;;;7.50;1.40;;;10.10;99.90;;;;;;5068664;28;20123;-75
2023/01/20 03:14:27;;;;;;;4.80;1.30;;;10.10;99.90;;;;;;5068935;28;20123;-75
2023/01/20 03:16:55;;;;;;;4.45;1.40;;;10.20;99.90;;;;;;5067537;28;20144;-75
2023/01/20 03:19:22;;;;;;;4.03;1.13;;;10.10;99.90;;;;;;5068219;28;20799;-75
2023/01/20 03:21:50;;;;;;;2.83;1.40;;;10.10;99.90;;;;;;5068264;28;20379;-74
2023/01/20 03:24:17;;;;;;;4.38;1.55;;;10.00;99.90;;;;;;5068391;28;20117;-75
2023/01/20 03:26:45;;;;;;;5.85;1.30;;;10.00;99.90;;;;;;5068521;28;20037;-75
2023/01/20 03:29:14;;;;;;;6.53;2.50;;;10.00;99.90;;;;;;5068786;28;20048;-75
2023/01/20 03:31:49;;;;;;;6.72;1.73;;;10.00;99.90;;;;;;5068347;28;20040;-75
2023/01/20 03:34:20;;;;;;;2.42;1.60;;;10.00;99.90;;;;;;5068811;28;20079;-75
2023/01/20 03:36:48;;;;;;;3.60;1.80;;;10.10;99.90;;;;;;5051043;28;20052;-75
2023/01/20 03:39:17;;;;;;;4.32;1.85;;;10.00;99.90;;;;;;5068715;28;20053;-75
2023/01/20 03:41:47;;;;;;;2.58;1.65;;;10.10;99.90;;;;;;5068162;28;20471;-75
2023/01/20 03:44:14;;;;;;;3.88;1.30;;;10.00;99.90;;;;;;5068793;28;20121;-75
2023/01/20 03:46:50;;;;;;;5.75;2.45;;;10.00;99.90;;;;;;5067083;28;20071;-75
2023/01/20 03:49:26;;;;;;;2.95;1.50;;;10.00;99.90;;;;;;5067316;28;20048;-74
2023/01/20 03:51:58;;;;;;;4.57;1.58;;;10.00;99.90;;;;;;5068088;28;20040;-75
2023/01/20 03:54:33;;;;;;;3.80;1.70;;;10.00;99.90;;;;;;5067001;28;20094;-75
2023/01/20 03:57:11;;;;;;;2.33;1.20;;;9.90;99.90;;;;;;5067547;28;20195;-75
2023/01/20 03:59:42;;;;;;;1.88;1.08;;;9.90;99.90;;;;;;5068333;28;20044;-75
2023/01/20 04:02:10;;;;;;;3.78;1.10;;;9.90;99.90;;;;;;5048416;28;20549;-75
2023/01/20 04:04:41;;;;;;;4.20;1.88;;;9.90;99.90;;;;;;5056083;28;20048;-74
2023/01/20 04:07:14;;;;;;;6.05;2.22;;;9.90;99.90;;;;;;5067095;28;20576;-75
2023/01/20 04:09:46;;;;;;;3.33;1.25;;;9.90;99.90;;;;;;5068336;28;20041;-75
2023/01/20 04:12:13;;;;;;;5.65;1.77;;;9.90;99.90;;;;;;5068221;28;20041;-75
2023/01/20 04:14:41;;;;;;;7.13;1.63;;;9.90;99.90;;;;;;5068101;28;20127;-75
2023/01/20 04:17:09;;;;;;;4.05;1.80;;;9.90;99.90;;;;;;5066955;28;20060;-75
2023/01/20 04:19:37;;;;;;;3.55;1.75;;;9.90;99.90;;;;;;5066494;28;20044;-75
2023/01/20 04:22:10;;;;;;;2.35;1.48;;;9.90;99.90;;;;;;5067500;28;20060;-75
2023/01/20 04:24:47;;;;;;;3.25;1.27;;;9.90;99.90;;;;;;5066778;28;20343;-75
2023/01/20 04:27:15;;;;;;;2.65;1.45;;;9.90;99.90;;;;;;5067466;28;20063;-75
2023/01/20 04:29:42;;;;;;;2.60;1.23;;;10.00;99.90;;;;;;5071756;28;20061;-75
2023/01/20 04:32:11;;;;;;;2.38;1.63;;;10.00;99.90;;;;;;5069796;28;20102;-75
2023/01/20 04:34:39;;;;;;;3.35;1.40;;;9.90;99.90;;;;;;5071682;28;20147;-75
2023/01/20 04:37:06;;;;;;;5.53;1.70;;;9.90;99.90;;;;;;5071925;28;20065;-75
2023/01/20 04:39:34;;;;;;;2.90;1.45;;;9.90;99.90;;;;;;5070837;28;20055;-75
2023/01/20 04:42:01;;;;;;;2.97;1.30;;;9.90;99.90;;;;;;5071414;28;20075;-75
2023/01/20 04:44:28;;;;;;;3.65;1.83;;;9.80;99.90;;;;;;5070429;28;20104;-75
2023/01/20 04:46:57;;;;;;;2.55;1.30;;;9.80;99.90;;;;;;5071454;28;20140;-75
2023/01/20 04:49:25;;;;;;;3.00;1.20;;;9.80;99.90;;;;;;5071254;28;20070;-75
2023/01/20 04:51:52;;;;;;;3.85;1.83;;;9.70;99.90;;;;;;5069576;28;20044;-75
2023/01/20 04:54:20;;;;;;;5.57;1.10;;;9.70;99.90;;;;;;5070682;28;20095;-75
2023/01/20 04:56:48;;;;;;;3.70;0.90;;;9.70;99.90;;;;;;5071396;28;20049;-75
2023/01/20 04:59:15;;;;;;;2.53;1.30;;;9.60;99.90;;;;;;5071248;28;20067;-75
2023/01/20 05:01:43;;;;;;;3.22;1.27;;;9.60;99.90;;;;;;5070953;28;20040;-75
2023/01/20 05:04:11;;;;;;;2.35;1.27;;;9.50;99.90;;;;;;5070979;28;20032;-74
2023/01/20 05:06:41;;;;;;;2.53;1.15;;;9.50;99.90;;;;;;5070271;28;20459;-75
2023/01/20 05:09:14;;;;;;;2.63;1.50;;;9.40;99.90;;;;;;5071162;28;20054;-75
2023/01/20 05:11:42;;;;;;;4.13;1.42;;;9.30;99.90;;;;;;5070831;28;20049;-74
2023/01/20 05:14:11;;;;;;;4.22;1.50;;;9.20;99.90;;;;;;5070696;28;20463;-75
2023/01/20 05:16:38;;;;;;;2.15;1.20;;;9.20;99.90;;;;;;5069861;28;20479;-75
2023/01/20 05:19:06;;;;;;;2.55;1.63;;;9.20;99.90;;;;;;5069647;28;20502;-75
2023/01/20 05:21:33;;;;;;;3.22;1.20;;;9.10;99.90;;;;;;5068862;28;20053;-75
2023/01/20 05:24:01;;;;;;;5.45;2.25;;;9.10;99.90;;;;;;5070771;28;20418;-74
2023/01/20 05:26:28;;;;;;;4.45;1.88;;;9.00;99.90;;;;;;5070926;28;20071;-75
2023/01/20 05:28:56;;;;;;;4.22;2.70;;;9.00;99.90;;;;;;5070654;28;20059;-75
2023/01/20 05:31:24;;;;;;;4.13;2.50;;;9.00;99.90;;;;;;5069267;28;20117;-75
2023/01/20 05:33:51;;;;;;;6.07;3.03;;;8.90;99.90;;;;;;5070358;28;20047;-75
2023/01/20 05:36:18;;;;;;;7.07;3.17;;;8.80;99.90;;;;;;5070554;28;20081;-75
2023/01/20 05:38:46;;;;;;;4.55;2.92;;;8.80;99.90;;;;;;5069768;28;20125;-74
2023/01/20 05:41:14;;;;;;;5.28;2.60;;;8.80;99.90;;;;;;5068681;28;20048;-75
2023/01/20 05:43:41;;;;;;;3.72;1.83;;;8.80;99.90;;;;;;5070111;28;20048;-75
2023/01/20 05:46:08;;;;;;;6.00;2.58;;;8.80;99.90;;;;;;5068737;28;20051;-75
2023/01/20 05:48:39;;;;;;;3.38;1.92;;;8.80;99.90;;;;;;5070196;28;20414;-75
2023/01/20 05:51:07;;;;;;;4.38;2.08;;;8.80;99.90;;;;;;5070067;28;20110;-75
2023/01/20 05:53:34;;;;;;;3.85;2.15;;;8.80;99.90;;;;;;5068540;28;20037;-75
2023/01/20 05:56:04;;;;;;;5.88;2.28;;;8.70;99.90;;;;;;5069831;28;20147;-75
2023/01/20 05:58:32;;;;;;;5.55;2.47;;;8.70;99.90;;;;;;5068338;28;20036;-75
2023/01/20 06:01:07;;;;;;;7.85;4.07;;;8.80;99.90;;;;;;5069553;28;20045;-75
2023/01/20 06:03:35;;;;;;;6.77;3.50;;;8.80;99.90;;;;;;5069496;28;20051;-75
2023/01/20 06:06:06;;;;;;;6.43;3.20;;;8.80;99.90;;;;;;5069526;28;20055;-75
2023/01/20 06:08:34;;;;;;;5.03;1.95;;;8.90;99.90;;;;;;5069625;28;20158;-75
2023/01/20 06:11:02;;;;;;;3.42;2.65;;;9.00;99.90;;;;;;5069553;28;20059;-75
2023/01/20 06:13:29;;;;;;;2.67;1.20;;;9.00;99.90;;;;;;5069318;28;20032;-75
2023/01/20 06:15:57;;;;;;;3.33;0.80;;;9.00;99.90;;;;;;5069373;28;20136;-75
2023/01/20 06:18:24;;;;;;;1.52;1.20;;;9.00;99.90;;;;;;5067352;28;20048;-75
2023/01/20 06:20:59;;;;;;;3.47;1.75;;;9.10;99.90;;;;;;5067696;28;20045;-75
2023/01/20 06:23:27;;;;;;;1.25;0.88;;;9.10;99.90;;;;;;5068516;28;20036;-75
2023/01/20 06:26:03;;;;;;;1.52;0.90;;;9.20;99.90;;;;;;5069462;28;20044;-75
2023/01/20 06:28:31;;;;;;;2.22;0.80;;;9.20;99.90;;;;;;5069769;28;20044;-75
2023/01/20 06:31:05;;;;;;;2.83;1.40;;;9.20;99.90;;;;;;5067776;28;20046;-75
2023/01/20 06:33:33;;;;;;;4.72;2.20;;;8.90;99.90;;;;;;5069191;28;20509;-75
2023/01/20 06:36:02;;;;;;;11.15;7.97;;;8.80;99.90;;;;;;5069183;28;20048;-75
2023/01/20 06:38:32;;;;;;;10.77;7.70;;;8.70;99.90;;;;;;5068115;28;20048;-75
2023/01/20 06:41:05;;;;;;;9.35;5.50;;;8.70;99.90;;;;;;5067915;28;20045;-75
2023/01/20 06:43:34;;;;;;;4.05;2.50;;;8.70;99.90;;;;;;5067653;28;20055;-75
2023/01/20 06:46:07;;;;;;;3.08;1.67;;;8.70;99.90;;;;;;5068932;28;20050;-75
2023/01/20 06:48:35;;;;;;;3.00;1.85;;;9.00;99.90;;;;;;5068257;28;20208;-75
2023/01/20 06:51:04;;;;;;;3.47;1.75;;;9.70;99.90;;;;;;5067171;28;20052;-75
2023/01/20 06:53:32;;;;;;;2.42;1.17;;;10.90;99.90;;;;;;5068766;28;20048;-75
2023/01/20 06:56:00;;;;;;;1.52;1.00;;;12.30;99.90;;;;;;5067003;28;20486;-74
2023/01/20 06:58:30;;;;;;;1.13;0.93;;;13.60;99.90;;;;;;5069056;28;20143;-74
2023/01/20 07:01:05;;;;;;;1.27;1.00;;;14.60;99.90;;;;;;5068737;28;20044;-74
2023/01/20 07:03:33;;;;;;;1.90;1.30;;;15.70;99.90;;;;;;5068592;28;20037;-74
2023/01/20 07:06:12;;;;;;;1.98;1.00;;;16.60;99.90;;;;;;5067150;28;20060;-74
2023/01/20 07:08:42;;;;;;;2.00;1.20;;;17.30;99.90;;;;;;5068667;28;20466;-74
2023/01/20 07:11:10;;;;;;;2.17;1.25;;;17.90;99.50;;;;;;5069043;28;20043;-74
2023/01/20 07:13:37;;;;;;;4.68;1.58;;;18.50;98.70;;;;;;5068416;28;20152;-74
2023/01/20 07:16:05;;;;;;;2.63;1.60;;;19.00;97.80;;;;;;5068547;28;20051;-74
2023/01/20 07:18:36;;;;;;;3.22;1.48;;;19.30;97.20;;;;;;5067703;28;20045;-74
2023/01/20 07:21:04;;;;;;;1.70;1.08;;;19.70;96.40;;;;;;5066876;28;20110;-74
2023/01/20 07:23:32;;;;;;;5.22;1.50;;;20.30;95.30;;;;;;5066872;28;20113;-74
2023/01/20 07:26:02;;;;;;;3.38;1.52;;;20.80;95.00;;;;;;5068448;28;20051;-74
2023/01/20 07:28:31;;;;;;;4.03;1.23;;;21.10;94.00;;;;;;5066996;28;20201;-74
2023/01/20 07:31:13;;;;;;;2.72;1.13;;;21.60;93.30;;;;;;5068414;28;20528;-74
2023/01/20 07:33:40;;;;;;;4.30;1.10;;;22.00;93.00;;;;;;5066928;28;20044;-74
2023/01/20 07:36:09;;;;;;;1.15;0.90;;;22.10;92.40;;;;;;5067990;28;20045;-74
2023/01/20 07:38:36;;;;;;;1.77;1.13;;;21.90;92.40;;;;;;5068490;28;20053;-74
2023/01/20 07:41:09;;;;;;;1.48;1.08;;;21.70;92.20;;;;;;5066856;28;20071;-74
2023/01/20 07:43:36;;;;;;;2.10;1.10;;;21.40;92.20;;;;;;5068337;28;20048;-74
2023/01/20 07:46:04;;;;;;;3.35;1.33;;;20.90;92.60;;;;;;5068019;28;20090;-74
2023/01/20 07:48:33;;;;;;;2.42;1.60;;;20.60;93.10;;;;;;5066757;28;20495;-74
2023/01/20 07:51:04;;;;;;;5.25;1.40;;;20.20;93.20;;;;;;5066913;28;20040;-74
2023/01/20 07:53:37;;;;;;;2.03;1.50;;;19.60;93.70;;;;;;5067935;28;20041;-73
2023/01/20 07:56:11;;;;;;;4.25;2.40;;;19.20;94.20;;;;;;5067962;28;20049;-74
2023/01/20 07:58:39;;;;;;;4.28;2.50;;;18.70;94.70;;;;;;5050463;28;20102;-74
2023/01/20 08:01:33;;;;;;;3.08;1.73;;;18.40;95.30;;;;;;5068135;28;20776;-74
2023/01/20 08:04:01;;;;;;;5.30;2.22;;;18.20;96.00;;;;;;5068385;28;20048;-74
2023/01/20 08:06:29;;;;;;;3.30;2.28;;;18.00;96.40;;;;;;5054020;28;20053;-74
2023/01/20 08:09:00;;;;;;;3.92;1.85;;;18.00;96.70;;;;;;5071997;28;20121;-74
2023/01/20 08:11:28;;;;;;;3.60;1.60;;;18.00;96.60;;;;;;5071772;28;20041;-74
2023/01/20 08:13:55;;;;;;;3.17;1.83;;;18.20;96.80;;;;;;5071903;28;20090;-74
2023/01/20 08:16:23;;;;;;;2.72;1.45;;;18.20;96.80;;;;;;5071523;28;20037;-74
2023/01/20 08:18:53;;;;;;;2.15;1.67;;;18.30;96.50;;;;;;5071545;28;20052;-74
2023/01/20 08:21:22;;;;;;;4.63;1.90;;;18.40;96.80;;;;;;5071240;28;20127;-74
2023/01/20 08:23:50;;;;;;;3.70;1.80;;;18.40;97.00;;;;;;5071410;28;20072;-74
2023/01/20 08:26:18;;;;;;;5.18;1.85;;;18.40;97.00;;;;;;5053697;28;20055;-74
2023/01/20 08:28:46;;;;;;;4.95;2.95;;;18.40;97.10;;;;;;5070251;28;20087;-73
2023/01/20 08:31:17;;;;;;;3.30;1.52;;;18.20;97.10;;;;;;5071453;28;20139;-74
2023/01/20 08:33:45;;;;;;;4.45;1.80;;;18.10;97.40;;;;;;5071323;28;20043;-73
2023/01/20 08:36:15;;;;;;;3.65;1.98;;;17.90;97.40;;;;;;5070150;28;20041;-74
2023/01/20 08:38:43;;;;;;;2.63;1.45;;;17.70;97.50;;;;;;5069823;28;20447;-74
2023/01/20 08:41:13;;;;;;;3.15;1.60;;;17.50;97.80;;;;;;5071354;28;20044;-74
2023/01/20 08:43:41;;;;;;;2.33;1.00;;;17.20;98.50;;;;;;5071156;28;20055;-73
2023/01/20 08:46:11;;;;;;;1.65;0.90;;;16.90;98.10;;;;;;5070991;28;20132;-73
2023/01/20 08:48:40;;;;;;;3.55;1.73;;;16.50;98.20;;;;;;5071258;28;20096;-74
2023/01/20 08:51:14;;;;;;;1.13;0.80;;;16.40;98.60;;;;;;5071229;28;20045;-73
2023/01/20 08:53:42;;;;;;;2.63;0.70;;;16.40;98.70;;;;;;5070908;28;20185;-74
2023/01/20 08:56:11;;;;;;;0.80;0.70;;;16.50;98.80;;;;;;5068774;28;20563;-73
2023/01/20 08:58:39;;;;;;;1.08;0.80;;;16.60;98.60;;;;;;5070916;28;20402;-74
2023/01/20 09:01:16;;;;;;;4.20;1.20;;;16.10;98.30;;;;;;5070168;28;20368;-74
2023/01/20 09:03:44;;;;;;;4.60;1.00;;;15.70;98.50;;;;;;5070810;28;20517;-73
2023/01/20 09:06:29;;;;;;;1.52;0.80;;;15.50;98.30;;;;;;5064898;28;20597;-73
2023/01/20 09:08:57;;;;;;;0.68;0.63;;;14.90;98.20;;;;;;5081755;28;20450;-74
2023/01/20 09:11:25;;;;;;;1.15;0.80;;;15.20;99.40;;;;;;5049045;28;20041;-74
2023/01/20 09:13:53;;;;;;;1.70;0.82;;;15.40;98.80;;;;;;5048037;28;20048;-74
2023/01/20 09:16:21;;;;;;;2.00;1.17;;;15.60;98.30;;;;;;5066853;28;20050;-74
2023/01/20 09:18:48;;;;;;;2.85;1.40;;;16.00;98.60;;;;;;5068544;28;20048;-73
2023/01/20 09:21:16;;;;;;;2.28;1.00;;;15.70;97.10;;;;;;5070638;28;20542;-74
2023/01/20 09:23:46;;;;;;;1.77;0.98;;;15.70;96.30;;;;;;5070710;28;20048;-73
2023/01/20 09:26:14;;;;;;;2.10;1.45;;;15.40;96.20;;;;;;5069448;28;20048;-73
2023/01/20 09:28:56;;;;;;;2.88;1.35;;;15.70;97.10;;;;;;5068988;28;20043;-74
2023/01/20 09:31:24;;;;;;;3.85;1.75;;;16.20;97.20;;;;;;5068853;28;20052;-74
2023/01/20 09:33:52;;;;;;;1.40;0.90;;;16.50;96.80;;;;;;5069755;28;20048;-74
2023/01/20 09:36:19;;;;;;;3.38;1.23;;;16.90;96.40;;;;;;5069632;28;20041;-73
2023/01/20 09:44:40;;;;;;;1.33;0.80;;;15.70;95.10;;;;;;5070113;28;20425;-73
2023/01/20 09:47:19;;;;;;;3.78;1.58;;;15.80;95.00;;;;;;5068648;28;20044;-74
2023/01/20 09:53:24;;;;;;;5.55;1.27;;;15.60;95.90;;;;;;5058217;28;20048;-74
2023/01/20 09:56:07;;;;;;;1.98;0.90;;;16.00;95.90;;;;;;5061506;28;20036;-74
2023/01/20 09:59:03;;;;;;;0.88;0.80;;;15.90;96.30;;;;;;5066694;28;20131;-74
2023/01/20 10:01:55;;;;;;;4.32;0.80;;;15.80;96.60;;;;;;5067229;28;20048;-74
2023/01/20 10:04:37;;;;;;;1.90;1.00;;;15.00;97.10;;;;;;5066456;28;20052;-73
2023/01/20 10:07:07;;;;;;;2.35;1.33;;;14.20;98.70;;;;;;5062875;28;20123;-74
2023/01/20 10:09:41;;;;;;;4.07;1.45;;;14.00;99.40;;;;;;5066447;28;20127;-74
2023/01/20 10:12:11;;;;;;;3.30;1.77;;;13.70;99.50;;;;;;5060776;28;20125;-74
2023/01/20 10:14:52;;;;;;;5.38;2.20;;;13.90;99.60;;;;;;5059592;28;20414;-73
2023/01/20 10:17:31;;;;;;;2.75;1.10;;;14.40;99.90;;;;;;5064535;28;20052;-73
2023/01/20 10:20:10;;;;;;;2.33;1.30;;;14.70;99.40;;;;;;5058619;28;20065;-73
2023/01/20 10:22:57;;;;;;;2.03;1.23;;;14.60;98.90;;;;;;5051394;28;20083;-74
2023/01/20 10:26:03;;;;;;;2.03;1.93;;;14.20;99.60;;;;;;5058504;28;20564;-74
2023/01/20 10:28:58;;;;;;;1.15;1.05;;;13.70;99.90;;;;;;5067771;28;20036;-74
2023/01/20 10:31:31;;;;;;;1.67;0.90;;;13.80;99.90;;;;;;5067132;28;20574;-74
2023/01/20 10:34:10;;;;;;;1.52;0.93;;;14.20;99.90;;;;;;5058285;28;20120;-74
2023/01/20 10:36:42;;;;;;;2.40;1.30;;;14.70;99.80;;;;;;5061252;28;20036;-73
2023/01/20 10:39:39;;;;;;;3.72;1.08;;;14.80;99.90;;;;;;5068144;28;20094;-74
2023/01/20 10:42:18;;;;;;;2.60;1.10;;;14.70;98.30;;;;;;5067920;28;20044;-74
2023/01/20 10:44:49;;;;;;;8.63;4.45;;;14.50;98.90;;;;;;5074484;28;20052;-74
2023/01/20 10:47:36;;;;;;;6.90;3.08;;;14.30;98.70;;;;;;5067922;28;20040;-74
2023/01/20 10:50:35;;;;;;;3.72;1.40;;;14.10;98.90;;;;;;5068882;28;20123;-74
2023/01/20 10:53:28;;;;;;;1.50;1.02;;;14.40;99.30;;;;;;5066363;28;20052;-75
2023/01/20 10:56:09;;;;;;;2.45;1.08;;;14.80;99.20;;;;;;5067633;28;20040;-74
2023/01/20 10:58:42;;;;;;;7.55;1.95;;;15.40;98.50;;;;;;5062697;28;20059;-74
2023/01/20 11:01:14;;;;;;;2.40;1.17;;;15.70;98.20;;;;;;5067932;28;20090;-74
2023/01/20 11:03:45;;;;;;;6.07;2.60;;;16.10;98.20;;;;;;5069026;28;20043;-73
2023/01/20 11:06:25;;;;;;;7.57;3.35;;;15.40;97.30;;;;;;5068806;28;20048;-74
2023/01/20 11:08:54;;;;;;;5.57;2.10;;;15.00;97.10;;;;;;5048645;28;20052;-74
2023/01/20 11:11:38;;;;;;;2.78;1.45;;;14.90;98.20;;;;;;5069069;28;20037;-74
2023/01/20 11:14:07;;;;;;;98.85;65.43;;;15.00;98.50;;;;;;5069595;28;20123;-73
2023/01/20 11:16:35;;;;;;;43.83;27.10;;;15.10;98.30;;;;;;5066655;28;20052;-73
2023/01/20 11:19:06;;;;;;;48.72;26.50;;;15.10;98.50;;;;;;5064440;28;20036;-74
2023/01/20 11:21:35;;;;;;;11.98;5.22;;;15.60;98.10;;;;;;5065088;28;20056;-74
2023/01/20 11:24:31;;;;;;;6.70;2.75;;;15.90;97.60;;;;;;5060946;28;20352;-74
2023/01/20 11:27:10;;;;;;;4.85;3.05;;;15.20;97.00;;;;;;5058938;28;20056;-73
2023/01/20 11:29:45;;;;;;;2.95;1.55;;;15.20;96.80;;;;;;5059727;28;20376;-74
2023/01/20 11:32:38;;;;;;;2.65;1.00;;;15.10;97.40;;;;;;5068960;28;20117;-74
2023/01/20 11:35:25;;;;;;;5.57;2.00;;;14.70;97.50;;;;;;5068975;28;20039;-74
2023/01/20 11:37:53;;;;;;;5.55;1.60;;;14.50;97.30;;;;;;5067901;28;20102;-74
2023/01/20 11:40:22;;;;;;;96.47;60.45;;;14.40;97.40;;;;;;5067834;28;20154;-74
2023/01/20 11:42:51;;;;;;;12.43;8.00;;;14.10;97.80;;;;;;5068158;28;20048;-73
2023/01/20 11:45:21;;;;;;;3.88;1.92;;;14.20;98.00;;;;;;5062366;28;20401;-73
2023/01/20 11:48:07;;;;;;;7.57;5.05;;;13.90;98.60;;;;;;5049578;28;20078;-73
2023/01/20 11:50:39;;;;;;;4.55;1.98;;;13.80;98.70;;;;;;5049673;28;20041;-73
2023/01/20 11:53:21;;;;;;;6.13;2.50;;;13.80;99.10;;;;;;5082410;28;20059;-73
2023/01/20 11:56:01;;;;;;;6.40;3.80;;;13.40;98.50;;;;;;5066853;28;20154;-75
2023/01/20 11:58:32;;;;;;;5.50;3.58;;;13.40;98.60;;;;;;5081478;28;20068;-72
2023/01/20 12:01:07;;;;;;;4.53;2.58;;;13.40;98.80;;;;;;5059373;28;20503;-72
2023/01/20 12:03:52;;;;;;;11.65;5.22;;;13.40;98.60;;;;;;5065202;28;20068;-73
2023/01/20 12:06:27;;;;;;;6.60;2.75;;;13.60;99.10;;;;;;5062855;28;20049;-72
2023/01/20 12:09:14;;;;;;;2.70;1.92;;;13.70;99.20;;;;;;5052270;28;20510;-73
2023/01/20 12:12:03;;;;;;;9.23;5.80;;;13.60;99.00;;;;;;5065177;28;20049;-73
2023/01/20 12:15:09;;;;;;;4.88;3.55;;;13.30;99.00;;;;;;5054613;28;20444;-73
2023/01/20 12:17:59;;;;;;;4.35;1.92;;;13.50;99.60;;;;;;5015319;28;20045;-73
2023/01/20 12:20:34;;;;;;;3.15;1.90;;;13.50;98.90;;;;;;5009795;28;20053;-72
2023/01/20 12:23:38;;;;;;;3.28;1.88;;;13.50;98.90;;;;;;5053108;28;20165;-72
2023/01/20 12:26:07;;;;;;;5.47;3.45;;;13.50;99.30;;;;;;5059097;28;20478;-75
2023/01/20 12:29:00;;;;;;;9.23;5.40;;;13.50;99.60;;;;;;5067455;28;20068;-73
2023/01/20 12:31:29;;;;;;;8.43;4.68;;;13.20;99.40;;;;;;5060227;28;20793;-72
2023/01/20 12:34:04;;;;;;;19.02;11.13;;;12.90;99.30;;;;;;5019671;28;20148;-72
2023/01/20 12:36:50;;;;;;;6.45;2.53;;;12.50;99.50;;;;;;5066494;28;20098;-73
2023/01/20 12:39:33;;;;;;;3.53;2.83;;;12.40;99.70;;;;;;5066356;28;20139;-73
2023/01/20 12:42:09;;;;;;;5.65;4.03;;;12.40;99.90;;;;;;5049786;28;20040;-72
2023/01/20 12:44:52;;;;;;;3.90;1.75;;;12.30;99.90;;;;;;5066415;28;20049;-75
2023/01/20 12:47:58;;;;;;;10.68;6.28;;;12.20;99.90;;;;;;5047853;28;20146;-75
2023/01/20 12:50:46;;;;;;;21.50;12.60;;;12.20;99.90;;;;;;5063560;28;20140;-73
2023/01/20 12:53:22;;;;;;;450.30;268.10;;;12.20;99.90;;;;;;5068188;28;20040;-72
2023/01/20 12:56:06;;;;;;;152.68;74.78;;;12.20;99.90;;;;;;5049315;28;20071;-75
2023/01/20 12:58:51;;;;;;;57.03;36.67;;;12.20;99.90;;;;;;5070780;28;20055;-72
2023/01/20 13:02:00;;;;;;;263.08;146.75;;;12.20;99.90;;;;;;5052488;28;20045;-73
2023/01/20 13:04:58;;;;;;;34.97;19.80;;;12.20;99.90;;;;;;5039236;28;20076;-73
2023/01/20 13:08:03;;;;;;;12.40;7.35;;;12.20;99.70;;;;;;5057961;28;20104;-73
2023/01/20 13:10:43;;;;;;;6.50;4.25;;;12.20;99.30;;;;;;5069676;28;20036;-72
2023/01/20 13:13:52;;;;;;;11.45;5.85;;;12.10;99.70;;;;;;5048468;28;20468;-72
2023/01/20 13:16:32;;;;;;;4.32;3.28;;;12.10;99.80;;;;;;5067203;28;20040;-73
2023/01/20 13:19:25;;;;;;;11.55;3.33;;;12.10;99.90;;;;;;5033137;28;20045;-72
2023/01/20 13:21:53;;;;;;;94.65;56.67;;;12.20;99.90;;;;;;5055868;28;20067;-73
2023/01/20 13:24:34;;;;;;;11.45;6.45;;;12.20;99.30;;;;;;5038029;28;20410;-73
2023/01/20 13:27:02;;;;;;;4.68;2.90;;;12.20;99.10;;;;;;5049042;28;20046;-74
2023/01/20 13:29:35;;;;;;;5.10;2.70;;;12.10;99.00;;;;;;5062480;28;20498;-73
2023/01/20 13:32:24;;;;;;;3.05;1.92;;;12.10;99.40;;;;;;5066470;28;20091;-74